Time;durP1;ratioP1;P1;durP2;ratioP2;P2;SDS_P1;SDS_P2;PMS_P1;PMS_P2;Temp;Humidity;BMP_temperature;BMP_pressure;BME280_temperature;BME280_humidity;BME280_pressure;Samples;Min_cycle;Max_cycle;Signal;HPM_P1;HPM_P2
2022/08/02 00:00:05;;;;;;;9.85;3.30;;;;;;;;;;5005867;28;20438;-52
2022/08/02 00:02:51;;;;;;;12.88;3.42;;;;;;;;;;5004353;28;20042;-50
2022/08/02 00:05:37;;;;;;;7.45;2.83;;;;;;;;;;5007149;28;20026;-55
2022/08/02 00:08:22;;;;;;;7.18;2.95;;;;;;;;;;5005514;28;20034;-51
2022/08/02 00:11:08;;;;;;;6.35;3.10;;;;;;;;;;5008257;28;20034;-51
2022/08/02 00:13:54;;;;;;;10.25;3.60;;;;;;;;;;5007070;28;20033;-48
2022/08/02 00:16:40;;;;;;;7.70;3.40;;;;;;;;;;5009139;28;20053;-49
2022/08/02 00:19:25;;;;;;;8.45;3.20;;;;;;;;;;5006973;28;20478;-50
2022/08/02 00:22:11;;;;;;;10.70;3.63;;;;;;;;;;5006849;28;20026;-52
2022/08/02 00:24:57;;;;;;;4.63;2.17;;;;;;;;;;5006711;28;20068;-50
2022/08/02 00:27:43;;;;;;;8.25;1.60;;;;;;;;;;5007527;28;20498;-52
2022/08/02 00:30:28;;;;;;;5.15;2.08;;;;;;;;;;5005734;28;20468;-49
2022/08/02 00:33:14;;;;;;;3.60;2.13;;;;;;;;;;5009428;28;20096;-49
2022/08/02 00:36:00;;;;;;;3.08;2.03;;;;;;;;;;5005251;28;20112;-49
2022/08/02 00:38:47;;;;;;;6.22;2.30;;;;;;;;;;5006191;28;20067;-52
2022/08/02 00:41:43;;;;;;;3.67;1.80;;;;;;;;;;5005180;28;20034;-51
2022/08/02 00:44:29;;;;;;;7.78;1.92;;;;;;;;;;5009430;28;20037;-50
2022/08/02 00:47:14;;;;;;;2.88;1.73;;;;;;;;;;5007949;28;20865;-53
2022/08/02 00:50:01;;;;;;;3.15;2.15;;;;;;;;;;5004473;28;20471;-49
2022/08/02 00:52:46;;;;;;;7.35;2.17;;;;;;;;;;5007052;28;20041;-50
2022/08/02 00:55:32;;;;;;;5.60;1.88;;;;;;;;;;5004852;28;20041;-50
2022/08/02 00:58:18;;;;;;;2.15;1.88;;;;;;;;;;5006753;28;20054;-53
2022/08/02 01:01:03;;;;;;;3.28;1.80;;;;;;;;;;5003902;28;20040;-52
2022/08/02 01:03:49;;;;;;;4.63;1.70;;;;;;;;;;5003810;28;20036;-50
2022/08/02 01:06:36;;;;;;;2.55;1.83;;;;;;;;;;5005536;28;20034;-49
2022/08/02 01:09:22;;;;;;;6.28;1.65;;;;;;;;;;5005451;28;20532;-50
2022/08/02 01:12:08;;;;;;;2.90;1.75;;;;;;;;;;5005989;28;20057;-49
2022/08/02 01:14:57;;;;;;;1.67;1.58;;;;;;;;;;5008023;28;20087;-49
2022/08/02 01:18:03;;;;;;;2.20;1.60;;;;;;;;;;5006479;28;20046;-48
2022/08/02 01:21:11;;;;;;;3.17;1.40;;;;;;;;;;5005915;28;20037;-50
2022/08/02 01:24:06;;;;;;;4.57;1.50;;;;;;;;;;5007477;28;20432;-53
2022/08/02 01:27:02;;;;;;;4.63;1.33;;;;;;;;;;5004001;28;20053;-50
2022/08/02 01:29:52;;;;;;;1.80;1.35;;;;;;;;;;5005680;28;20037;-51
2022/08/02 01:32:45;;;;;;;4.18;1.42;;;;;;;;;;5006951;28;20498;-49
2022/08/02 01:35:40;;;;;;;6.07;1.42;;;;;;;;;;5006283;28;20044;-53
2022/08/02 01:38:37;;;;;;;6.05;1.35;;;;;;;;;;5007103;28;20049;-54
2022/08/02 01:41:26;;;;;;;3.05;1.30;;;;;;;;;;4999174;28;20040;-47
2022/08/02 01:44:14;;;;;;;3.95;1.90;;;;;;;;;;5007301;28;20096;-50
2022/08/02 01:47:08;;;;;;;4.35;1.50;;;;;;;;;;5008190;28;20089;-52
2022/08/02 01:49:57;;;;;;;1.73;1.10;;;;;;;;;;5006286;28;20045;-49
2022/08/02 01:52:48;;;;;;;1.08;1.08;;;;;;;;;;5004461;28;20096;-49
2022/08/02 01:55:44;;;;;;;3.83;1.55;;;;;;;;;;5006587;28;20167;-50
2022/08/02 01:58:35;;;;;;;6.32;1.83;;;;;;;;;;5004910;28;20451;-50
2022/08/02 02:01:22;;;;;;;1.65;1.55;;;;;;;;;;5007262;28;20037;-51
2022/08/02 02:04:08;;;;;;;4.80;1.50;;;;;;;;;;5005874;28;20034;-50
2022/08/02 02:06:56;;;;;;;4.60;1.50;;;;;;;;;;5006921;28;20522;-53
2022/08/02 02:09:44;;;;;;;6.07;1.70;;;;;;;;;;5005374;28;20057;-50
2022/08/02 02:12:32;;;;;;;2.25;1.70;;;;;;;;;;5005042;28;20034;-49
2022/08/02 02:15:19;;;;;;;3.17;1.95;;;;;;;;;;5003769;28;20124;-54
2022/08/02 02:18:06;;;;;;;4.35;1.48;;;;;;;;;;5005991;28;20400;-53
2022/08/02 02:20:53;;;;;;;7.30;1.40;;;;;;;;;;5013148;28;20049;-50
2022/08/02 02:23:39;;;;;;;1.85;1.60;;;;;;;;;;5013144;28;20041;-51
2022/08/02 02:26:26;;;;;;;3.70;1.42;;;;;;;;;;5010247;28;20034;-50
2022/08/02 02:29:13;;;;;;;2.08;1.58;;;;;;;;;;5012886;28;20049;-50
2022/08/02 02:32:00;;;;;;;3.30;1.60;;;;;;;;;;5008887;28;20080;-54
2022/08/02 02:34:48;;;;;;;1.77;1.20;;;;;;;;;;5011484;28;20133;-52
2022/08/02 02:37:34;;;;;;;2.97;1.52;;;;;;;;;;5010698;28;20077;-49
2022/08/02 02:40:22;;;;;;;1.30;1.20;;;;;;;;;;5014503;28;20028;-48
2022/08/02 02:43:09;;;;;;;5.20;1.73;;;;;;;;;;5008974;28;20060;-54
2022/08/02 02:45:56;;;;;;;3.70;1.73;;;;;;;;;;5011333;28;20479;-48
2022/08/02 02:48:42;;;;;;;2.72;1.52;;;;;;;;;;5010125;28;20036;-49
2022/08/02 02:51:29;;;;;;;5.28;1.52;;;;;;;;;;5009967;28;20386;-50
2022/08/02 02:54:16;;;;;;;1.88;1.40;;;;;;;;;;5009812;28;20033;-52
2022/08/02 02:57:05;;;;;;;4.35;1.50;;;;;;;;;;5009664;28;20689;-52
2022/08/02 02:59:53;;;;;;;1.48;1.35;;;;;;;;;;5013360;28;20026;-49
2022/08/02 03:02:41;;;;;;;11.25;1.80;;;;;;;;;;5010662;28;20025;-50
2022/08/02 03:05:27;;;;;;;2.05;1.42;;;;;;;;;;5008933;28;20033;-49
2022/08/02 03:08:14;;;;;;;2.70;1.65;;;;;;;;;;5012827;28;20750;-50
2022/08/02 03:11:00;;;;;;;1.70;1.40;;;;;;;;;;5013244;28;20136;-49
2022/08/02 03:13:47;;;;;;;2.15;1.30;;;;;;;;;;5009906;28;20041;-47
2022/08/02 03:16:32;;;;;;;1.40;1.30;;;;;;;;;;5011685;28;20116;-48
2022/08/02 03:19:20;;;;;;;2.20;1.20;;;;;;;;;;5012542;28;20088;-48
2022/08/02 03:22:05;;;;;;;4.35;1.60;;;;;;;;;;5008004;28;20024;-48
2022/08/02 03:24:51;;;;;;;5.53;1.85;;;;;;;;;;5011996;28;20034;-49
2022/08/02 03:27:38;;;;;;;3.38;1.40;;;;;;;;;;5008922;28;20044;-49
2022/08/02 03:30:26;;;;;;;3.30;1.40;;;;;;;;;;5009315;28;20041;-50
2022/08/02 03:33:12;;;;;;;5.95;1.42;;;;;;;;;;5009856;28;20052;-50
2022/08/02 03:36:02;;;;;;;1.27;1.27;;;;;;;;;;5006139;28;20030;-48
2022/08/02 03:38:50;;;;;;;2.53;1.42;;;;;;;;;;5007012;28;20026;-49
2022/08/02 03:41:36;;;;;;;3.53;1.52;;;;;;;;;;5006261;28;20562;-52
2022/08/02 03:44:24;;;;;;;4.65;1.75;;;;;;;;;;5008618;28;20088;-48
2022/08/02 03:47:11;;;;;;;2.80;1.60;;;;;;;;;;5006105;28;20034;-49
2022/08/02 03:49:57;;;;;;;3.55;1.48;;;;;;;;;;5005659;28;20041;-49
2022/08/02 03:52:44;;;;;;;1.85;1.30;;;;;;;;;;5008548;28;20168;-50
2022/08/02 03:55:30;;;;;;;1.45;1.35;;;;;;;;;;5005306;28;20026;-48
2022/08/02 03:58:20;;;;;;;1.58;1.48;;;;;;;;;;5007172;28;20088;-48
2022/08/02 04:01:05;;;;;;;7.65;1.70;;;;;;;;;;5007352;28;20030;-49
2022/08/02 04:03:51;;;;;;;1.48;1.38;;;;;;;;;;5011173;28;20026;-49
2022/08/02 04:06:37;;;;;;;3.28;1.30;;;;;;;;;;5007735;28;20030;-49
2022/08/02 04:09:22;;;;;;;1.55;1.40;;;;;;;;;;5005827;28;20041;-51
2022/08/02 04:12:08;;;;;;;1.73;1.38;;;;;;;;;;5005179;28;20036;-48
2022/08/02 04:14:54;;;;;;;1.33;1.27;;;;;;;;;;5005514;28;20036;-50
2022/08/02 04:17:49;;;;;;;1.58;1.48;;;;;;;;;;5004547;28;20038;-48
2022/08/02 04:20:37;;;;;;;2.70;1.75;;;;;;;;;;5007694;28;20034;-49
2022/08/02 04:23:24;;;;;;;1.60;1.50;;;;;;;;;;5006495;28;20052;-50
2022/08/02 04:26:10;;;;;;;11.07;1.75;;;;;;;;;;5009518;28;20122;-46
2022/08/02 04:28:57;;;;;;;2.97;1.70;;;;;;;;;;5004946;28;20120;-50
2022/08/02 04:31:43;;;;;;;4.93;1.50;;;;;;;;;;5003717;28;20550;-48
2022/08/02 04:34:29;;;;;;;4.35;1.50;;;;;;;;;;5007005;28;20030;-50
2022/08/02 04:37:15;;;;;;;2.45;1.67;;;;;;;;;;5006401;28;20038;-49
2022/08/02 04:40:01;;;;;;;4.03;1.73;;;;;;;;;;5006924;28;20022;-49
2022/08/02 04:42:46;;;;;;;2.35;1.60;;;;;;;;;;5005412;28;20568;-50
2022/08/02 04:45:33;;;;;;;2.90;1.42;;;;;;;;;;5006468;28;20498;-50
2022/08/02 04:48:20;;;;;;;3.72;1.75;;;;;;;;;;5007522;28;20022;-49
2022/08/02 04:51:06;;;;;;;1.55;1.48;;;;;;;;;;5006794;28;20065;-51
2022/08/02 04:53:52;;;;;;;3.47;1.65;;;;;;;;;;5008096;28;20030;-50
2022/08/02 04:56:38;;;;;;;2.88;1.60;;;;;;;;;;5004060;28;20120;-48
2022/08/02 04:59:24;;;;;;;7.40;1.80;;;;;;;;;;5009194;28;20042;-50
2022/08/02 05:02:09;;;;;;;10.40;2.10;;;;;;;;;;5005991;28;20092;-50
2022/08/02 05:04:55;;;;;;;4.00;1.52;;;;;;;;;;5006055;28;20048;-54
2022/08/02 05:07:41;;;;;;;4.00;1.40;;;;;;;;;;5004963;28;20495;-48
2022/08/02 05:10:27;;;;;;;3.53;1.30;;;;;;;;;;5004343;28;20061;-51
2022/08/02 05:13:12;;;;;;;7.93;1.80;;;;;;;;;;5001426;28;20040;-48
2022/08/02 05:16:02;;;;;;;11.50;1.60;;;;;;;;;;5003759;28;20034;-49
2022/08/02 05:18:49;;;;;;;5.38;1.60;;;;;;;;;;5005342;28;20483;-53
2022/08/02 05:21:35;;;;;;;3.50;1.65;;;;;;;;;;5006699;28;20116;-51
2022/08/02 05:24:21;;;;;;;2.00;1.50;;;;;;;;;;5005468;28;20553;-53
2022/08/02 05:27:06;;;;;;;5.15;1.73;;;;;;;;;;5005256;28;20037;-48
2022/08/02 05:29:53;;;;;;;2.90;2.08;;;;;;;;;;5003250;28;20034;-50
2022/08/02 05:32:46;;;;;;;6.65;1.98;;;;;;;;;;5006667;28;20034;-50
2022/08/02 05:35:33;;;;;;;10.70;2.10;;;;;;;;;;5008907;28;20069;-50
2022/08/02 05:38:19;;;;;;;5.50;2.00;;;;;;;;;;5004319;28;20030;-52
2022/08/02 05:41:05;;;;;;;6.47;2.05;;;;;;;;;;5006565;28;20037;-53
2022/08/02 05:43:51;;;;;;;7.18;1.92;;;;;;;;;;5003776;28;20097;-50
2022/08/02 05:46:36;;;;;;;4.93;1.95;;;;;;;;;;5004646;28;20713;-51
2022/08/02 05:49:22;;;;;;;7.57;1.73;;;;;;;;;;5007216;28;20030;-53
2022/08/02 05:52:15;;;;;;;8.30;2.03;;;;;;;;;;5009209;28;20037;-52
2022/08/02 05:55:07;;;;;;;4.07;1.92;;;;;;;;;;5002280;28;20617;-49
2022/08/02 05:58:16;;;;;;;10.63;2.00;;;;;;;;;;5003727;28;20533;-50
2022/08/02 06:01:03;;;;;;;2.97;1.50;;;;;;;;;;5005402;28;20120;-52
2022/08/02 06:03:50;;;;;;;12.07;2.05;;;;;;;;;;5002816;28;20030;-50
2022/08/02 06:06:42;;;;;;;8.02;1.70;;;;;;;;;;5004866;28;20041;-51
2022/08/02 06:09:28;;;;;;;3.35;1.90;;;;;;;;;;5005998;28;20042;-53
2022/08/02 06:12:15;;;;;;;5.13;1.80;;;;;;;;;;5006667;28;20034;-50
2022/08/02 06:15:04;;;;;;;5.45;1.80;;;;;;;;;;5005289;28;20033;-53
2022/08/02 06:17:51;;;;;;;4.93;2.17;;;;;;;;;;5003355;28;20453;-50
2022/08/02 06:20:37;;;;;;;3.75;1.95;;;;;;;;;;5004053;28;20045;-49
2022/08/02 06:23:24;;;;;;;10.70;1.80;;;;;;;;;;5006108;28;20029;-50
2022/08/02 06:26:12;;;;;;;6.75;2.03;;;;;;;;;;5007467;28;20033;-49
2022/08/02 06:28:58;;;;;;;3.88;1.80;;;;;;;;;;5005469;28;20065;-51
2022/08/02 06:31:44;;;;;;;2.60;1.83;;;;;;;;;;5005062;28;20554;-51
2022/08/02 06:34:29;;;;;;;6.35;1.80;;;;;;;;;;5001106;28;20026;-50
2022/08/02 06:37:28;;;;;;;8.02;1.77;;;;;;;;;;5002512;28;20492;-51
2022/08/02 06:40:29;;;;;;;11.18;2.00;;;;;;;;;;5006456;28;20026;-50
2022/08/02 06:43:27;;;;;;;7.95;1.80;;;;;;;;;;5001089;28;20038;-51
2022/08/02 06:46:13;;;;;;;12.52;1.85;;;;;;;;;;5006752;28;20056;-51
2022/08/02 06:49:01;;;;;;;5.93;1.83;;;;;;;;;;5007280;28;20032;-51
2022/08/02 06:51:46;;;;;;;5.57;1.83;;;;;;;;;;5005356;28;20029;-50
2022/08/02 06:54:34;;;;;;;4.32;1.70;;;;;;;;;;5004829;28;20037;-51
2022/08/02 06:57:20;;;;;;;10.88;2.20;;;;;;;;;;5005294;28;20127;-55
2022/08/02 07:00:08;;;;;;;5.13;2.10;;;;;;;;;;5001731;28;20033;-51
2022/08/02 07:02:54;;;;;;;7.22;2.20;;;;;;;;;;5003149;28;20030;-52
2022/08/02 07:05:40;;;;;;;4.68;1.77;;;;;;;;;;5007619;28;20069;-51
2022/08/02 07:08:27;;;;;;;5.50;1.95;;;;;;;;;;5007655;28;21403;-53
2022/08/02 07:11:12;;;;;;;4.57;1.80;;;;;;;;;;5009533;28;20032;-50
2022/08/02 07:13:58;;;;;;;10.20;1.90;;;;;;;;;;5009371;28;20030;-49
2022/08/02 07:16:44;;;;;;;3.17;1.63;;;;;;;;;;5009626;28;20037;-51
2022/08/02 07:19:29;;;;;;;5.32;1.85;;;;;;;;;;5008577;28;20030;-53
2022/08/02 07:22:17;;;;;;;5.78;1.70;;;;;;;;;;5008812;28;20026;-51
2022/08/02 07:25:04;;;;;;;1.90;1.70;;;;;;;;;;5004399;28;20091;-49
2022/08/02 07:27:49;;;;;;;4.90;1.80;;;;;;;;;;5007212;28;20092;-50
2022/08/02 07:30:36;;;;;;;7.93;1.60;;;;;;;;;;5011163;28;20038;-52
2022/08/02 07:33:22;;;;;;;5.60;1.55;;;;;;;;;;5007033;28;20383;-51
2022/08/02 07:36:08;;;;;;;8.23;1.60;;;;;;;;;;5009725;28;20042;-51
2022/08/02 07:38:53;;;;;;;1.77;1.40;;;;;;;;;;5006912;28;20038;-49
2022/08/02 07:41:39;;;;;;;5.55;1.80;;;;;;;;;;5010654;28;20034;-50
2022/08/02 07:44:25;;;;;;;3.08;1.58;;;;;;;;;;5007902;28;20022;-54
2022/08/02 07:47:11;;;;;;;4.55;1.83;;;;;;;;;;5010093;28;20042;-48
2022/08/02 07:49:56;;;;;;;5.97;1.50;;;;;;;;;;5011014;28;20030;-54
2022/08/02 07:52:43;;;;;;;8.02;1.40;;;;;;;;;;5008888;28;20087;-49
2022/08/02 07:55:29;;;;;;;5.85;1.67;;;;;;;;;;5009761;28;20030;-50
2022/08/02 07:58:15;;;;;;;3.97;1.50;;;;;;;;;;5002420;28;20045;-52
2022/08/02 08:01:01;;;;;;;7.03;1.88;;;;;;;;;;5008686;28;20041;-49
2022/08/02 08:03:47;;;;;;;4.63;1.70;;;;;;;;;;5006006;28;20029;-54
2022/08/02 08:06:33;;;;;;;9.88;1.40;;;;;;;;;;5002026;28;20033;-52
2022/08/02 08:09:19;;;;;;;1.77;1.67;;;;;;;;;;5008727;28;20026;-50
2022/08/02 08:12:05;;;;;;;5.22;1.50;;;;;;;;;;5007258;28;20109;-49
2022/08/02 08:14:51;;;;;;;2.60;1.50;;;;;;;;;;5008597;28;20033;-51
2022/08/02 08:17:37;;;;;;;3.80;1.92;;;;;;;;;;5008320;28;20037;-50
2022/08/02 08:20:22;;;;;;;3.63;1.50;;;;;;;;;;5009034;28;20030;-48
2022/08/02 08:23:08;;;;;;;14.40;2.08;;;;;;;;;;5007836;28;20068;-52
2022/08/02 08:25:54;;;;;;;4.55;1.65;;;;;;;;;;5011185;28;20040;-52
2022/08/02 08:28:40;;;;;;;2.55;1.42;;;;;;;;;;5009931;28;20212;-54
2022/08/02 08:31:25;;;;;;;2.90;1.40;;;;;;;;;;5004623;28;20026;-50
2022/08/02 08:34:11;;;;;;;3.30;1.70;;;;;;;;;;5008342;28;20030;-52
2022/08/02 08:36:57;;;;;;;7.45;1.50;;;;;;;;;;5007531;28;20033;-49
2022/08/02 08:39:43;;;;;;;6.35;1.65;;;;;;;;;;5006384;28;20044;-53
2022/08/02 08:42:30;;;;;;;4.75;1.40;;;;;;;;;;5006641;28;20038;-50
2022/08/02 08:45:16;;;;;;;8.52;1.60;;;;;;;;;;5008038;28;20040;-49
2022/08/02 08:48:14;;;;;;;4.00;1.48;;;;;;;;;;5006399;28;20034;-54
2022/08/02 08:51:10;;;;;;;3.85;1.50;;;;;;;;;;5006698;28;20034;-55
2022/08/02 08:54:00;;;;;;;6.43;2.13;;;;;;;;;;5004632;28;20129;-50
2022/08/02 08:56:46;;;;;;;7.28;1.50;;;;;;;;;;5006415;28;20029;-55
2022/08/02 08:59:32;;;;;;;3.95;1.73;;;;;;;;;;5005012;28;20483;-51
2022/08/02 09:02:18;;;;;;;1.85;1.30;;;;;;;;;;5004670;28;20387;-51
2022/08/02 09:05:04;;;;;;;10.25;1.95;;;;;;;;;;5005300;28;20034;-53
2022/08/02 09:07:51;;;;;;;9.18;2.00;;;;;;;;;;5007189;28;20065;-50
2022/08/02 09:10:40;;;;;;;5.95;1.48;;;;;;;;;;5004253;28;20113;-49
2022/08/02 09:13:28;;;;;;;4.50;1.70;;;;;;;;;;5005827;28;20033;-51
2022/08/02 09:16:14;;;;;;;8.27;1.52;;;;;;;;;;5005455;28;20034;-52
2022/08/02 09:19:18;;;;;;;4.32;1.33;;;;;;;;;;5007204;28;20073;-51
2022/08/02 09:22:07;;;;;;;1.58;1.48;;;;;;;;;;5005975;28;20030;-51
2022/08/02 09:24:53;;;;;;;2.70;1.50;;;;;;;;;;5006738;28;20224;-51
2022/08/02 09:27:38;;;;;;;5.13;1.75;;;;;;;;;;5006324;28;20033;-54
2022/08/02 09:30:27;;;;;;;3.75;1.85;;;;;;;;;;5007376;28;20034;-56
2022/08/02 09:33:23;;;;;;;1.65;1.55;;;;;;;;;;5005422;28;20052;-51
2022/08/02 09:36:14;;;;;;;5.32;1.52;;;;;;;;;;5007923;28;20069;-52
2022/08/02 09:39:01;;;;;;;6.50;1.55;;;;;;;;;;5006661;28;20033;-54
2022/08/02 09:41:47;;;;;;;7.15;1.25;;;;;;;;;;5004854;28;20030;-52
2022/08/02 09:44:33;;;;;;;4.60;1.40;;;;;;;;;;5005026;28;20118;-53
2022/08/02 09:47:18;;;;;;;3.42;1.52;;;;;;;;;;5005109;28;20437;-53
2022/08/02 09:50:04;;;;;;;3.83;1.27;;;;;;;;;;5005619;28;20116;-53
2022/08/02 09:52:50;;;;;;;1.42;1.33;;;;;;;;;;5003983;28;20136;-52
2022/08/02 09:55:36;;;;;;;2.95;1.27;;;;;;;;;;5007202;28;20487;-54
2022/08/02 09:58:22;;;;;;;1.58;1.40;;;;;;;;;;5004095;28;20096;-51
2022/08/02 10:01:08;;;;;;;1.75;1.30;;;;;;;;;;5004193;28;20085;-51
2022/08/02 10:03:55;;;;;;;4.80;1.40;;;;;;;;;;5001452;28;20092;-51
2022/08/02 10:06:45;;;;;;;1.42;1.30;;;;;;;;;;5005665;28;20034;-53
2022/08/02 10:09:31;;;;;;;1.80;1.33;;;;;;;;;;5004282;28;20041;-51
2022/08/02 10:12:21;;;;;;;1.40;1.17;;;;;;;;;;5006009;28;20045;-55
2022/08/02 10:15:08;;;;;;;2.10;1.47;;;;;;;;;;5003764;28;20041;-55
2022/08/02 10:17:54;;;;;;;2.90;1.42;;;;;;;;;;5003015;28;20764;-49
2022/08/02 10:20:43;;;;;;;4.97;1.20;;;;;;;;;;5005336;28;20205;-55
2022/08/02 10:23:33;;;;;;;3.80;1.40;;;;;;;;;;5007588;28;20080;-49
2022/08/02 10:26:19;;;;;;;3.72;1.08;;;;;;;;;;5005862;28;20120;-53
2022/08/02 10:29:08;;;;;;;4.63;1.17;;;;;;;;;;5006288;28;20033;-55
2022/08/02 10:31:58;;;;;;;1.77;1.20;;;;;;;;;;5003812;28;20044;-54
2022/08/02 10:34:53;;;;;;;3.58;1.27;;;;;;;;;;5004302;28;20583;-53
2022/08/02 10:37:40;;;;;;;3.65;1.10;;;;;;;;;;5002405;28;20044;-53
2022/08/02 10:40:45;;;;;;;5.07;1.13;;;;;;;;;;5009019;28;20034;-52
2022/08/02 10:43:31;;;;;;;3.10;1.50;;;;;;;;;;5007032;28;20072;-50
2022/08/02 10:46:32;;;;;;;2.65;1.10;;;;;;;;;;5008672;28;20550;-52
2022/08/02 10:49:19;;;;;;;10.32;1.38;;;;;;;;;;5009716;28;20037;-53
2022/08/02 10:52:07;;;;;;;2.83;1.15;;;;;;;;;;5009676;28;20487;-53
2022/08/02 10:55:08;;;;;;;4.10;1.33;;;;;;;;;;5007005;28;20033;-54
2022/08/02 10:58:28;;;;;;;1.50;1.13;;;;;;;;;;5006584;28;21134;-53
2022/08/02 11:01:31;;;;;;;2.08;1.40;;;;;;;;;;4969802;28;20420;-55
2022/08/02 11:04:17;;;;;;;4.70;1.20;;;;;;;;;;4969744;28;20035;-52
2022/08/02 11:07:16;;;;;;;1.13;1.10;;;;;;;;;;4967559;28;20027;-51
2022/08/02 11:10:28;;;;;;;2.08;1.20;;;;;;;;;;4970669;28;20034;-55
2022/08/02 11:13:16;;;;;;;5.25;1.30;;;;;;;;;;4965730;28;20026;-53
2022/08/02 11:16:03;;;;;;;6.60;1.20;;;;;;;;;;4968450;28;20124;-49
2022/08/02 11:18:49;;;;;;;3.20;1.15;;;;;;;;;;4968172;28;20034;-52
2022/08/02 11:21:35;;;;;;;1.80;0.93;;;;;;;;;;4967911;28;20035;-55
2022/08/02 11:24:27;;;;;;;1.08;0.95;;;;;;;;;;4968660;28;20487;-52
2022/08/02 11:27:19;;;;;;;11.77;1.30;;;;;;;;;;4969190;28;20038;-53
2022/08/02 11:30:11;;;;;;;8.45;1.42;;;;;;;;;;4968054;28;20093;-54
2022/08/02 11:32:59;;;;;;;4.68;1.27;;;;;;;;;;4968061;28;20369;-50
2022/08/02 11:35:44;;;;;;;2.97;1.23;;;;;;;;;;4974358;28;20402;-54
2022/08/02 11:38:30;;;;;;;4.47;1.10;;;;;;;;;;5006634;28;20030;-51
2022/08/02 11:41:20;;;;;;;1.20;1.10;;;;;;;;;;5008667;28;20576;-55
2022/08/02 11:44:06;;;;;;;1.63;1.38;;;;;;;;;;5009077;28;20045;-54
2022/08/02 11:46:57;;;;;;;2.85;1.27;;;;;;;;;;5008126;28;20022;-52
2022/08/02 11:49:43;;;;;;;1.53;0.90;;;;;;;;;;5004800;28;20406;-51
2022/08/02 11:52:33;;;;;;;1.67;1.20;;;;;;;;;;5006812;28;20263;-54
2022/08/02 11:55:26;;;;;;;1.25;0.88;;;;;;;;;;5004168;28;20505;-51
2022/08/02 11:58:12;;;;;;;5.88;1.00;;;;;;;;;;5006775;28;20406;-52
2022/08/02 12:00:58;;;;;;;5.68;1.00;;;;;;;;;;5006397;28;20058;-52
2022/08/02 12:03:44;;;;;;;6.15;1.20;;;;;;;;;;5007533;28;20541;-54
2022/08/02 12:06:30;;;;;;;8.20;1.27;;;;;;;;;;5007049;28;20080;-48
2022/08/02 12:09:16;;;;;;;2.70;1.10;;;;;;;;;;5004207;28;20505;-52
2022/08/02 12:12:03;;;;;;;0.90;0.90;;;;;;;;;;5007550;28;20523;-49
2022/08/02 12:14:49;;;;;;;0.80;0.80;;;;;;;;;;5008604;28;20042;-55
2022/08/02 12:20:40;;;;;;;1.73;1.10;;;;;;;;;;5005773;28;20095;-51
2022/08/02 12:23:26;;;;;;;2.40;1.02;;;;;;;;;;5005334;28;20030;-47
2022/08/02 12:26:12;;;;;;;1.42;1.00;;;;;;;;;;5008963;28;20176;-55
2022/08/02 12:28:59;;;;;;;7.45;1.30;;;;;;;;;;5009749;28;20030;-53
2022/08/02 12:31:46;;;;;;;14.38;1.40;;;;;;;;;;5003781;28;20030;-53
2022/08/02 12:34:33;;;;;;;3.47;1.30;;;;;;;;;;5006145;28;20403;-50
2022/08/02 12:37:24;;;;;;;8.48;1.60;;;;;;;;;;5006568;28;20505;-53
2022/08/02 12:40:31;;;;;;;8.07;1.38;;;;;;;;;;5007554;28;20029;-49
2022/08/02 12:43:19;;;;;;;1.48;1.38;;;;;;;;;;5005363;28;20504;-52
2022/08/02 12:46:17;;;;;;;6.13;1.50;;;;;;;;;;5004436;28;20030;-51
2022/08/02 12:49:17;;;;;;;4.60;1.30;;;;;;;;;;5009280;28;20034;-55
2022/08/02 12:52:21;;;;;;;2.60;1.10;;;;;;;;;;5005502;28;20688;-53
2022/08/02 12:55:22;;;;;;;5.55;1.20;;;;;;;;;;5005994;28;20040;-56
2022/08/02 12:58:07;;;;;;;4.63;1.33;;;;;;;;;;5006627;28;20125;-56
2022/08/02 13:00:59;;;;;;;2.65;1.10;;;;;;;;;;5007965;28;20120;-56
2022/08/02 13:03:44;;;;;;;;;;;;;;;;;;5006452;28;20045;-53
2022/08/02 13:06:30;;;;;;;2.90;1.10;;;;;;;;;;5008139;28;19917;-53
2022/08/02 13:09:16;;;;;;;3.40;1.00;;;;;;;;;;5005198;28;21827;-54
2022/08/02 13:12:03;;;;;;;1.45;1.35;;;;;;;;;;5006783;28;20037;-53
2022/08/02 13:14:49;;;;;;;2.25;1.00;;;;;;;;;;5006164;28;20051;-52
2022/08/02 13:17:35;;;;;;;3.00;1.55;;;;;;;;;;5006995;28;20039;-55
2022/08/02 13:20:21;;;;;;;6.32;1.33;;;;;;;;;;5007365;28;20033;-53
2022/08/02 13:23:06;;;;;;;1.58;1.20;;;;;;;;;;5004764;28;20398;-54
2022/08/02 13:25:53;;;;;;;7.65;1.50;;;;;;;;;;5004833;28;20388;-56
2022/08/02 13:28:41;;;;;;;10.13;1.60;;;;;;;;;;5004267;28;20135;-52
2022/08/02 13:31:27;;;;;;;1.38;1.20;;;;;;;;;;5005078;28;20026;-52
2022/08/02 13:34:13;;;;;;;1.50;1.13;;;;;;;;;;5006476;28;20537;-53
2022/08/02 13:36:59;;;;;;;4.57;1.58;;;;;;;;;;5002512;28;20053;-55
2022/08/02 13:39:45;;;;;;;6.88;1.20;;;;;;;;;;5006094;28;20121;-51
2022/08/02 13:42:32;;;;;;;9.00;2.13;;;;;;;;;;5006601;28;20034;-55
2022/08/02 13:45:17;;;;;;;3.15;1.50;;;;;;;;;;5005733;28;20034;-55
2022/08/02 13:48:03;;;;;;;2.38;1.20;;;;;;;;;;5003155;28;20382;-52
2022/08/02 13:50:49;;;;;;;14.13;1.85;;;;;;;;;;5004722;28;20025;-54
2022/08/02 13:53:35;;;;;;;3.83;1.13;;;;;;;;;;5006955;28;20025;-52
2022/08/02 13:56:20;;;;;;;2.47;1.40;;;;;;;;;;5003808;28;20109;-55
2022/08/02 13:59:06;;;;;;;1.75;1.25;;;;;;;;;;5006344;28;20510;-53
2022/08/02 14:01:55;;;;;;;2.22;1.40;;;;;;;;;;5004238;28;20037;-52
2022/08/02 14:04:41;;;;;;;2.88;1.25;;;;;;;;;;5006833;28;20038;-55
2022/08/02 14:07:26;;;;;;;2.85;1.10;;;;;;;;;;5004840;28;20136;-53
2022/08/02 14:10:12;;;;;;;5.32;1.48;;;;;;;;;;5006930;28;20030;-55
2022/08/02 14:12:58;;;;;;;4.53;1.38;;;;;;;;;;5006040;28;20106;-52
2022/08/02 14:15:43;;;;;;;2.90;1.27;;;;;;;;;;5003698;28;20041;-53
2022/08/02 14:18:29;;;;;;;12.32;2.28;;;;;;;;;;4998734;28;20033;-54
2022/08/02 14:21:15;;;;;;;6.28;1.60;;;;;;;;;;5005834;28;20026;-55
2022/08/02 14:24:01;;;;;;;13.70;1.90;;;;;;;;;;5006496;28;20113;-52
2022/08/02 14:26:47;;;;;;;6.88;1.90;;;;;;;;;;5002823;28;20180;-52
2022/08/02 14:29:33;;;;;;;7.30;2.13;;;;;;;;;;5005964;28;20077;-51
2022/08/02 14:32:18;;;;;;;9.68;2.22;;;;;;;;;;5000798;28;20042;-53
2022/08/02 14:35:05;;;;;;;14.32;2.35;;;;;;;;;;5006813;28;20041;-51
2022/08/02 14:37:51;;;;;;;5.03;1.88;;;;;;;;;;5005850;28;20455;-55
2022/08/02 14:40:36;;;;;;;8.23;1.80;;;;;;;;;;5003275;28;20454;-53
2022/08/02 14:46:26;;;;;;;7.70;1.88;;;;;;;;;;5005247;28;20038;-53
2022/08/02 14:49:12;;;;;;;5.82;2.00;;;;;;;;;;5007008;28;20034;-50
2022/08/02 14:51:58;;;;;;;6.10;2.20;;;;;;;;;;5005488;28;20058;-55
2022/08/02 14:54:44;;;;;;;12.50;2.50;;;;;;;;;;5005517;28;20037;-51
2022/08/02 14:57:31;;;;;;;10.00;2.28;;;;;;;;;;5005693;28;20042;-48
2022/08/02 15:00:17;;;;;;;10.20;2.60;;;;;;;;;;5007915;28;20065;-50
2022/08/02 15:03:02;;;;;;;19.33;2.10;;;;;;;;;;5007029;28;20036;-52
2022/08/02 15:05:48;;;;;;;6.90;1.95;;;;;;;;;;5005607;28;20030;-54
2022/08/02 15:08:34;;;;;;;13.68;2.30;;;;;;;;;;5004034;28;20053;-52
2022/08/02 15:11:20;;;;;;;5.22;2.17;;;;;;;;;;5005525;28;20061;-53
2022/08/02 15:14:05;;;;;;;10.20;1.95;;;;;;;;;;5005407;28;20022;-53
2022/08/02 15:16:52;;;;;;;6.07;2.20;;;;;;;;;;5008709;28;20088;-53
2022/08/02 15:19:40;;;;;;;2.88;2.30;;;;;;;;;;5002424;28;20176;-54
2022/08/02 15:22:26;;;;;;;10.10;2.33;;;;;;;;;;5002206;28;20473;-54
2022/08/02 15:25:12;;;;;;;7.35;2.58;;;;;;;;;;5006456;28;20030;-50
2022/08/02 15:27:57;;;;;;;10.18;2.15;;;;;;;;;;5008692;28;20038;-52
2022/08/02 15:30:43;;;;;;;12.20;2.00;;;;;;;;;;5008078;28;20049;-52
2022/08/02 15:33:29;;;;;;;6.90;1.90;;;;;;;;;;5007847;28;20058;-50
2022/08/02 15:36:15;;;;;;;6.82;1.77;;;;;;;;;;5006734;28;20087;-53
2022/08/02 15:39:01;;;;;;;5.43;1.75;;;;;;;;;;5008316;28;20659;-52
2022/08/02 15:41:47;;;;;;;6.60;2.15;;;;;;;;;;5003141;28;20034;-55
2022/08/02 15:44:32;;;;;;;5.50;1.90;;;;;;;;;;5009424;28;20044;-54
2022/08/02 15:47:18;;;;;;;7.90;1.75;;;;;;;;;;5008108;28;20040;-51
2022/08/02 15:50:04;;;;;;;7.22;1.70;;;;;;;;;;5009625;28;20518;-55
2022/08/02 15:52:50;;;;;;;6.50;2.00;;;;;;;;;;5006377;28;20033;-51
2022/08/02 15:55:37;;;;;;;4.78;1.98;;;;;;;;;;5009113;28;20095;-54
2022/08/02 15:58:23;;;;;;;8.52;1.75;;;;;;;;;;5002131;28;20061;-52
2022/08/02 16:01:09;;;;;;;4.30;1.85;;;;;;;;;;5008952;28;20037;-50
2022/08/02 16:03:54;;;;;;;2.17;1.98;;;;;;;;;;5007750;28;20085;-53
2022/08/02 16:06:41;;;;;;;4.72;1.80;;;;;;;;;;5009778;28;20034;-51
2022/08/02 16:09:26;;;;;;;6.05;1.77;;;;;;;;;;5007616;28;20094;-55
2022/08/02 16:12:12;;;;;;;2.97;1.75;;;;;;;;;;5009996;28;20382;-53
2022/08/02 16:14:58;;;;;;;4.63;1.95;;;;;;;;;;5007089;28;20041;-48
2022/08/02 16:17:44;;;;;;;6.28;2.10;;;;;;;;;;5006820;28;20044;-53
2022/08/02 16:20:29;;;;;;;3.47;1.90;;;;;;;;;;5008916;28;20033;-54
2022/08/02 16:23:15;;;;;;;4.40;2.00;;;;;;;;;;5006531;28;20030;-53
2022/08/02 16:26:01;;;;;;;6.55;2.03;;;;;;;;;;5008317;28;20040;-51
2022/08/02 16:28:46;;;;;;;3.80;1.67;;;;;;;;;;5008855;28;20045;-50
2022/08/02 16:31:32;;;;;;;2.92;1.65;;;;;;;;;;5008177;28;20057;-50
2022/08/02 16:34:18;;;;;;;3.88;1.88;;;;;;;;;;5006594;28;20030;-49
2022/08/02 16:37:04;;;;;;;4.82;2.05;;;;;;;;;;5007296;28;20124;-53
2022/08/02 16:39:49;;;;;;;7.97;1.65;;;;;;;;;;5006646;28;20446;-54
2022/08/02 16:42:35;;;;;;;4.05;1.80;;;;;;;;;;5006198;28;20076;-50
2022/08/02 16:45:21;;;;;;;3.20;2.13;;;;;;;;;;5008081;28;20104;-54
2022/08/02 16:48:07;;;;;;;5.53;1.80;;;;;;;;;;5006369;28;20032;-50
2022/08/02 16:50:53;;;;;;;5.65;2.00;;;;;;;;;;5002971;28;20036;-50